Main page
METAR-TAF:

METAR-TAF

Airports :

King Abdulaziz International Airport

Jeddah, Saudi Arabia

latitude: 21-42N, longitude: 039-11E, elevation: 15 m

Current weather observation

The report was made 34 minutes ago, at 19:00 UTC
Wind 3 kt from the West/Northwest
Temperature 32°C
Humidity 75%
Pressure 1002 hPa
Visibility 10 km or more
Scattered clouds at a height of 4000 ft

METAR: OEJN 281900Z 30003KT 9999 SCT040 32/27 Q1002 NOSIG

Time: 22:34 (19:34 UTC)

Forecast

The report was made 1 hour and 34 minutes ago, at 18:00 UTC
Forecast valid from 28 at 18 UTC to 29 at 24 UTC
Wind 8 kt from the South/Southwest
Visibility 10 km or more
Few clouds at a height of 4000 ft
Becoming
from 29 at 06 UTC to 29 at 08 UTC
Wind 12 kt from the West

TAF: OEJN 281800Z 2818/2924 21008KT 9999 FEW040 BECMG 2906/2908 26012KT

Weather observations and forecasts of more than 4000 airports (METAR and TAF reports).

The available stations are represented by yellow and red dots on the map.

Hover mouse over dot to see the name of the station.

Then click to see weather observations and forecasts.

To change the map : click on the green buttons with a black cross to zoom in, on the green button with a dash to zoom out, or on the green arrows for adjacent maps.


METAR-TAF: